createdAt,value
2023-01-09T08:11:09.541Z,22.4949
2023-01-09T08:12:33.912Z,22.5314
2023-01-09T08:13:34.950Z,22.5817
2023-01-09T08:14:37.310Z,22.5786
2023-01-09T08:15:37.899Z,22.5847
2023-01-09T08:16:37.660Z,22.6011
2023-01-09T08:17:41.312Z,22.5999
2023-01-09T08:18:41.646Z,22.6025
2023-01-09T08:19:40.637Z,22.6303
2023-01-09T08:20:42.072Z,22.6603
2023-01-09T08:21:40.322Z,22.6607
2023-01-09T08:22:42.845Z,22.6560
2023-01-09T08:23:45.593Z,22.6563
2023-01-09T08:24:45.522Z,22.6820
2023-01-09T08:25:46.089Z,22.6948
2023-01-09T08:26:46.844Z,22.7169
2023-01-09T08:27:51.655Z,22.7581
2023-01-09T08:28:53.398Z,22.7741
2023-01-09T08:29:48.586Z,22.7674
2023-01-09T08:30:49.844Z,22.7801
2023-01-09T08:31:50.092Z,22.8104
2023-01-09T08:32:49.206Z,22.8168
2023-01-09T08:33:50.959Z,22.8293
2023-01-09T08:34:51.825Z,22.8643
2023-01-09T08:35:51.872Z,22.8702
2023-01-09T08:36:52.030Z,22.8840
2023-01-09T08:37:55.312Z,22.8948
2023-01-09T08:38:54.870Z,22.8763
2023-01-09T08:39:54.591Z,22.9069
2023-01-09T08:40:53.984Z,22.8904
2023-01-09T08:41:57.372Z,22.8950
2023-01-09T08:42:55.621Z,22.8784
2023-01-09T08:43:57.463Z,22.9164
2023-01-09T08:44:59.524Z,22.9248
2023-01-09T08:46:04.210Z,22.9460
2023-01-09T08:47:04.329Z,22.9545
2023-01-09T08:48:08.810Z,22.9508
2023-01-09T08:49:05.156Z,22.9486
2023-01-09T08:50:05.904Z,22.9669
2023-01-09T08:51:05.784Z,22.9849
2023-01-09T08:52:08.340Z,22.9956
2023-01-09T08:53:09.463Z,22.9801
2023-01-09T08:54:09.531Z,23.0236
2023-01-09T08:55:11.195Z,23.0250
2023-01-09T08:56:09.351Z,23.0303
2023-01-09T08:57:10.893Z,23.0328
2023-01-09T08:58:10.791Z,23.0234
2023-01-09T12:43:46.840Z,23.4759
2023-01-09T12:45:09.038Z,23.4905
2023-01-09T12:46:09.903Z,23.4964
2023-01-09T12:47:10.787Z,23.4713
2023-01-09T12:48:11.652Z,23.5078
2023-01-09T12:49:12.361Z,23.5295
2023-01-09T12:50:13.595Z,23.4923
2023-01-09T12:51:14.373Z,23.5186
2023-01-09T12:52:16.171Z,23.5319
2023-01-09T12:53:15.385Z,23.5595
2023-01-09T12:54:16.036Z,23.5245
2023-01-09T12:55:16.668Z,23.5458
2023-01-09T12:56:17.384Z,23.5839
2023-01-09T12:57:18.063Z,23.5962
2023-01-09T12:58:18.684Z,23.5792
2023-01-09T12:59:19.373Z,23.6458
2023-01-09T13:00:20.021Z,23.5898
2023-01-09T13:01:20.735Z,23.6007
2023-01-09T13:02:21.553Z,23.5763
2023-01-09T13:03:22.360Z,23.5804
2023-01-09T13:04:23.285Z,23.5987
2023-01-09T13:05:24.270Z,23.5796
2023-01-09T13:06:25.139Z,23.6079
2023-01-09T13:07:25.801Z,23.5945
2023-01-09T13:08:26.497Z,23.5866
2023-01-09T13:09:27.205Z,23.6088
2023-01-09T13:10:28.187Z,23.6243
2023-01-09T13:11:28.897Z,23.5856
2023-01-09T13:12:29.735Z,23.5768
2023-01-09T13:13:30.496Z,23.5790
2023-01-09T13:14:31.279Z,23.6016
2023-01-09T13:15:32.113Z,23.5996
2023-01-09T13:16:32.996Z,23.5806
2023-01-09T13:17:33.986Z,23.6134
2023-01-09T13:18:34.833Z,23.5771
2023-01-09T13:19:35.862Z,23.5793
2023-01-09T13:20:36.886Z,23.5633
2023-01-09T13:21:37.892Z,23.5890
2023-01-09T13:22:38.738Z,23.5884
2023-01-09T13:23:39.507Z,23.6388
2023-01-09T13:24:40.222Z,23.6316
2023-01-09T13:25:41.027Z,23.6350
2023-01-09T13:26:41.710Z,23.6345
2023-01-09T13:27:42.525Z,23.6515
2023-01-09T13:28:43.430Z,23.6317
2023-01-09T13:29:43.729Z,23.6520
2023-01-09T13:30:44.480Z,23.6327
2023-01-09T13:31:45.372Z,23.6651
2023-01-09T13:32:46.240Z,23.6805
2023-01-09T13:33:46.943Z,23.6421
2023-01-09T13:34:47.915Z,23.6362
2023-01-09T13:35:48.629Z,23.6209
2023-01-09T13:36:49.369Z,23.6319
2023-01-09T13:37:50.493Z,23.6547
2023-01-09T13:38:51.472Z,23.6679
2023-01-09T13:39:52.431Z,23.6263
2023-01-09T13:40:53.057Z,23.6241
2023-01-09T13:41:53.851Z,23.6070
2023-01-09T13:42:54.617Z,23.6347
2023-01-09T13:43:55.444Z,23.6594
2023-01-09T13:44:56.450Z,23.6840
2023-01-09T13:45:57.424Z,23.6637
2023-01-09T13:46:58.335Z,23.6476
2023-01-09T13:47:58.939Z,23.6266
2023-01-09T13:48:59.715Z,23.6784
2023-01-09T13:50:00.662Z,23.6622
2023-01-09T13:51:01.573Z,23.7013
2023-01-09T13:52:02.380Z,23.7438
2023-01-09T13:53:03.154Z,23.7269
2023-01-09T13:54:04.048Z,23.6959
2023-01-09T13:55:04.924Z,23.6923
2023-01-09T13:56:05.811Z,23.6889
2023-01-09T13:57:06.823Z,23.7187
2023-01-09T13:58:07.498Z,23.6993
2023-01-09T13:59:08.412Z,23.6996
2023-01-09T14:00:09.410Z,23.7200
2023-01-09T14:01:10.339Z,23.6674
2023-01-09T14:02:11.454Z,23.6654
2023-01-09T14:03:12.381Z,23.6838
2023-01-09T14:04:14.758Z,23.6476
2023-01-09T14:05:14.476Z,23.7179
2023-01-09T14:06:15.271Z,23.6872
2023-01-09T14:07:16.586Z,23.6551
2023-01-09T14:08:18.293Z,23.6861
2023-01-09T14:09:18.036Z,23.6824
2023-01-09T14:10:19.012Z,23.6676
2023-01-09T14:11:18.892Z,23.6615
2023-01-09T14:12:20.026Z,23.6665
2023-01-09T14:13:20.894Z,23.6417
2023-01-09T14:14:21.771Z,23.6530
2023-01-09T14:15:22.720Z,23.6852
2023-01-09T14:16:23.696Z,23.7006
2023-01-09T14:17:24.736Z,23.6706
2023-01-09T14:18:25.972Z,23.6809
2023-01-09T14:19:26.996Z,23.6681
2023-01-09T14:20:28.005Z,23.6344
2023-01-09T14:21:28.896Z,23.6650
2023-01-09T14:22:29.621Z,23.6734
2023-01-09T14:23:50.241Z,23.6780
2023-01-09T14:24:30.778Z,23.5976
2023-01-09T14:25:31.985Z,23.7195
2023-01-09T14:26:34.210Z,23.6884
2023-01-09T14:27:32.816Z,23.6850
2023-01-09T14:28:33.911Z,23.7250
2023-01-09T14:29:34.945Z,23.6804
2023-01-09T14:30:36.057Z,23.7064
2023-01-09T14:31:36.929Z,23.6705
2023-01-09T14:32:37.829Z,23.6449
2023-01-09T14:33:38.794Z,23.6748
2023-01-09T14:34:39.686Z,23.6868
2023-01-09T14:35:43.164Z,23.6909
2023-01-09T14:36:41.332Z,23.6625
2023-01-09T14:37:43.211Z,23.6745
2023-01-09T14:38:43.554Z,23.6889
2023-01-09T14:39:43.313Z,23.6634
2023-01-09T14:40:48.758Z,23.7107
2023-01-09T14:41:44.118Z,23.6939
2023-01-09T14:42:44.989Z,23.7154
2023-01-09T14:43:46.199Z,23.6960
2023-01-09T14:44:47.177Z,23.6968
2023-01-09T14:45:49.989Z,23.6815
2023-01-09T14:46:48.481Z,23.6781
2023-01-09T14:47:49.317Z,23.6700
2023-01-09T14:48:50.493Z,23.6938
2023-01-09T14:49:51.543Z,23.7166
2023-01-09T14:50:52.381Z,23.7169
2023-01-09T14:51:53.382Z,23.6945
2023-01-09T14:52:54.224Z,23.7176
2023-01-09T14:53:55.232Z,23.7182
2023-01-09T14:54:56.573Z,23.6984
2023-01-09T14:55:57.509Z,23.7155
2023-01-09T14:56:58.321Z,23.6986
2023-01-09T14:57:59.161Z,23.7000
2023-01-09T14:58:59.995Z,23.7474
2023-01-09T15:00:01.297Z,23.7815
2023-01-09T15:01:02.186Z,23.7926
2023-01-09T15:02:03.142Z,23.8093
2023-01-09T15:03:04.451Z,23.8121
